Time;durP1;ratioP1;P1;durP2;ratioP2;P2;SDS_P1;SDS_P2;PMS_P1;PMS_P2;Temp;Humidity;BMP_temperature;BMP_pressure;BME280_temperature;BME280_humidity;BME280_pressure;Samples;Min_cycle;Max_cycle;Signal;HPM_P1;HPM_P2
2022/10/20 00:01:28;;;;;;;18.50;13.03;;;14.60;94.80;;;;;;1905248;75;20983;-54
2022/10/20 00:03:58;;;;;;;16.30;9.95;;;14.60;94.70;;;;;;1905227;75;21093;-55
2022/10/20 00:06:29;;;;;;;14.60;9.33;;;14.60;94.60;;;;;;1905197;75;21077;-55
2022/10/20 00:09:00;;;;;;;12.23;8.68;;;14.60;94.60;;;;;;1905156;75;21007;-55
2022/10/20 00:11:30;;;;;;;14.68;10.00;;;14.50;94.50;;;;;;1905185;74;21027;-55
2022/10/20 00:14:00;;;;;;;14.87;10.03;;;14.50;94.50;;;;;;1905209;75;21008;-56
2022/10/20 00:16:31;;;;;;;15.23;10.23;;;14.40;94.50;;;;;;1905328;74;21007;-55
2022/10/20 00:19:00;;;;;;;14.43;9.73;;;14.40;94.60;;;;;;1905400;75;21059;-56
2022/10/20 00:21:29;;;;;;;13.85;8.28;;;14.30;94.60;;;;;;1905288;75;21007;-55
2022/10/20 00:24:00;;;;;;;13.30;8.03;;;14.30;94.60;;;;;;1905266;75;21004;-55
2022/10/20 00:26:30;;;;;;;14.90;8.98;;;14.30;94.60;;;;;;1905367;75;21012;-55
2022/10/20 00:29:01;;;;;;;13.75;8.63;;;14.30;94.60;;;;;;1905376;75;21073;-53
2022/10/20 00:31:30;;;;;;;11.20;7.30;;;14.30;94.50;;;;;;1905282;75;21019;-56
2022/10/20 00:33:59;;;;;;;12.00;7.90;;;14.40;94.50;;;;;;1905266;75;21086;-54
2022/10/20 00:36:29;;;;;;;12.45;8.33;;;14.40;94.50;;;;;;1911903;74;21014;-54
2022/10/20 00:38:59;;;;;;;12.93;8.45;;;14.40;94.60;;;;;;1924698;74;21514;-55
2022/10/20 00:41:29;;;;;;;12.63;8.58;;;14.40;94.60;;;;;;1924733;74;21053;-55
2022/10/20 00:44:01;;;;;;;11.12;7.92;;;14.50;94.60;;;;;;1924711;74;21033;-54
2022/10/20 00:46:35;;;;;;;12.20;7.75;;;14.40;94.50;;;;;;1924686;74;21089;-54
2022/10/20 00:49:16;;;;;;;13.68;8.15;;;14.50;94.50;;;;;;1924662;74;21140;-55
2022/10/20 00:51:45;;;;;;;9.48;7.33;;;14.40;94.40;;;;;;1924746;74;21104;-55
2022/10/20 00:54:17;;;;;;;11.15;8.73;;;14.40;94.40;;;;;;1924676;74;21033;-55
2022/10/20 00:56:48;;;;;;;13.50;7.80;;;14.40;94.40;;;;;;1924493;74;21187;-55
2022/10/20 00:59:19;;;;;;;12.13;7.85;;;14.40;94.60;;;;;;1924675;74;21080;-55
2022/10/20 01:01:48;;;;;;;10.72;6.20;;;14.40;94.40;;;;;;1924721;74;21002;-53
2022/10/20 01:04:18;;;;;;;7.87;6.22;;;14.40;94.40;;;;;;1924660;74;21050;-55
2022/10/20 01:06:47;;;;;;;10.20;5.53;;;14.40;94.20;;;;;;1924686;74;21006;-55
2022/10/20 01:09:16;;;;;;;8.28;6.35;;;14.40;94.10;;;;;;1924540;74;21088;-55
2022/10/20 01:11:48;;;;;;;8.10;6.20;;;14.40;94.10;;;;;;1924756;74;21035;-54
2022/10/20 01:14:29;;;;;;;12.55;6.80;;;14.40;94.20;;;;;;1924048;74;21104;-55
2022/10/20 01:17:10;;;;;;;12.23;5.85;;;14.40;93.90;;;;;;1924137;74;21050;-53
2022/10/20 01:20:01;;;;;;;9.80;6.35;;;14.40;94.00;;;;;;1924682;74;21002;-55
2022/10/20 01:22:58;;;;;;;8.63;5.78;;;14.40;93.80;;;;;;1924717;74;21019;-55
2022/10/20 01:25:50;;;;;;;7.05;5.58;;;14.40;93.80;;;;;;1924661;74;21027;-56
2022/10/20 01:28:34;;;;;;;5.97;5.37;;;14.30;93.80;;;;;;1924655;74;21065;-55
2022/10/20 01:31:05;;;;;;;6.45;5.35;;;14.30;93.60;;;;;;1924650;74;20999;-55
2022/10/20 01:33:46;;;;;;;7.70;5.53;;;14.30;93.60;;;;;;1923940;74;21151;-56
2022/10/20 01:36:35;;;;;;;11.68;7.05;;;14.30;93.70;;;;;;1922772;74;21023;-55
2022/10/20 01:39:03;;;;;;;9.90;5.40;;;14.30;93.70;;;;;;1904150;74;21043;-56
2022/10/20 01:41:41;;;;;;;8.68;5.90;;;14.30;93.70;;;;;;1905379;75;21543;-56
2022/10/20 01:44:12;;;;;;;8.70;5.97;;;14.30;93.80;;;;;;1905224;74;20991;-56
2022/10/20 01:46:44;;;;;;;8.20;5.47;;;14.30;93.80;;;;;;1905344;75;21017;-55
2022/10/20 01:49:14;;;;;;;7.97;4.78;;;14.30;93.80;;;;;;1905240;75;21047;-54
2022/10/20 01:51:43;;;;;;;7.78;5.08;;;14.30;93.70;;;;;;1905386;75;20984;-54
2022/10/20 01:54:27;;;;;;;6.47;4.42;;;14.30;93.70;;;;;;1905268;75;21012;-56
2022/10/20 01:57:15;;;;;;;5.83;4.47;;;14.30;93.60;;;;;;1905458;74;21418;-55
2022/10/20 01:59:53;;;;;;;9.85;4.40;;;14.30;93.20;;;;;;1905554;75;21059;-55
2022/10/20 02:02:25;;;;;;;6.03;3.40;;;14.20;93.30;;;;;;1905414;75;21089;-55
2022/10/20 02:04:59;;;;;;;7.50;4.08;;;14.30;93.20;;;;;;1905411;75;21007;-56
2022/10/20 02:07:30;;;;;;;5.10;3.72;;;14.20;93.30;;;;;;1904876;74;21494;-55
2022/10/20 02:10:20;;;;;;;6.15;4.35;;;14.30;93.20;;;;;;1905160;75;21019;-55
2022/10/20 02:12:55;;;;;;;4.87;3.98;;;14.30;93.30;;;;;;1905331;75;21043;-56
2022/10/20 02:15:30;;;;;;;4.05;3.42;;;14.30;93.20;;;;;;1905295;74;21043;-54
2022/10/20 02:18:01;;;;;;;6.28;3.80;;;14.30;93.30;;;;;;1905443;75;21449;-55
2022/10/20 02:20:32;;;;;;;6.75;3.65;;;14.30;93.20;;;;;;1905133;74;21044;-55
2022/10/20 02:23:03;;;;;;;4.35;3.83;;;14.30;93.20;;;;;;1905353;75;21035;-55
2022/10/20 02:25:33;;;;;;;5.58;3.58;;;14.30;92.80;;;;;;1905294;75;21449;-55
2022/10/20 02:28:04;;;;;;;6.70;3.70;;;14.30;93.10;;;;;;1905272;75;20996;-54
2022/10/20 02:30:34;;;;;;;4.50;3.60;;;14.30;93.00;;;;;;1905413;75;21027;-55
2022/10/20 02:33:04;;;;;;;5.67;3.02;;;14.30;92.80;;;;;;1905347;75;20980;-56
2022/10/20 02:35:33;;;;;;;6.47;3.75;;;14.30;92.80;;;;;;1905300;75;21003;-55
2022/10/20 02:38:03;;;;;;;4.42;3.27;;;14.30;92.80;;;;;;1905222;75;21043;-55
2022/10/20 02:40:32;;;;;;;5.25;3.55;;;14.30;92.70;;;;;;1905432;75;21499;-56
2022/10/20 02:43:01;;;;;;;4.58;3.70;;;14.20;92.70;;;;;;1905297;75;21003;-55
2022/10/20 02:45:30;;;;;;;4.15;3.05;;;14.20;92.70;;;;;;1905552;75;21007;-55
2022/10/20 02:48:00;;;;;;;8.60;3.83;;;14.20;92.70;;;;;;1905364;75;20983;-57
2022/10/20 02:50:29;;;;;;;4.53;3.22;;;14.30;92.60;;;;;;1905278;75;21023;-56
2022/10/20 02:52:58;;;;;;;5.05;3.83;;;14.30;92.70;;;;;;1905347;75;21039;-56
2022/10/20 02:55:28;;;;;;;5.03;3.67;;;14.20;92.60;;;;;;1905504;75;21113;-51
2022/10/20 02:57:57;;;;;;;5.42;2.95;;;14.20;92.60;;;;;;1905209;74;21046;-56
2022/10/20 03:00:29;;;;;;;7.92;3.50;;;14.30;92.60;;;;;;1905310;75;21132;-55
2022/10/20 03:02:57;;;;;;;4.22;3.27;;;14.20;92.50;;;;;;1905149;74;21028;-56
2022/10/20 03:05:26;;;;;;;8.03;3.33;;;14.20;92.50;;;;;;1905248;75;21054;-54
2022/10/20 03:07:55;;;;;;;7.15;3.45;;;14.20;92.40;;;;;;1905231;75;21507;-55
2022/10/20 03:10:24;;;;;;;5.10;3.25;;;14.20;92.50;;;;;;1905157;74;21019;-56
2022/10/20 03:12:53;;;;;;;9.48;4.17;;;14.20;92.40;;;;;;1905208;75;21007;-55
2022/10/20 03:15:22;;;;;;;6.90;3.85;;;14.20;92.50;;;;;;1905270;75;21438;-57
2022/10/20 03:17:50;;;;;;;7.28;3.60;;;14.20;92.50;;;;;;1905295;75;21008;-55
2022/10/20 03:20:20;;;;;;;4.40;3.12;;;14.20;92.50;;;;;;1905246;75;21003;-57
2022/10/20 03:22:49;;;;;;;6.78;3.10;;;14.20;92.50;;;;;;1905178;75;21061;-53
2022/10/20 03:25:18;;;;;;;4.92;3.50;;;14.20;92.60;;;;;;1905338;75;21019;-56
2022/10/20 03:27:49;;;;;;;8.53;3.30;;;14.20;92.70;;;;;;1904859;74;20996;-56
2022/10/20 03:30:18;;;;;;;5.12;3.42;;;14.20;92.60;;;;;;1905177;75;21090;-55
2022/10/20 03:32:47;;;;;;;5.50;2.80;;;14.20;92.60;;;;;;1905177;75;21011;-56
2022/10/20 03:35:16;;;;;;;7.20;3.65;;;14.20;92.60;;;;;;1905181;75;21051;-55
2022/10/20 03:37:45;;;;;;;10.63;3.50;;;14.30;92.70;;;;;;1905138;75;21090;-55
2022/10/20 03:40:14;;;;;;;4.25;3.22;;;14.30;92.60;;;;;;1905213;74;21010;-56
2022/10/20 03:42:43;;;;;;;8.68;3.75;;;14.30;92.60;;;;;;1905221;75;21011;-54
2022/10/20 03:45:12;;;;;;;7.15;4.00;;;14.30;92.60;;;;;;1905184;75;21004;-55
2022/10/20 03:47:41;;;;;;;6.72;3.55;;;14.30;92.60;;;;;;1905212;75;21003;-55
2022/10/20 03:50:10;;;;;;;5.08;3.50;;;14.30;92.70;;;;;;1905307;75;20984;-56
2022/10/20 03:52:39;;;;;;;6.97;4.40;;;14.30;92.70;;;;;;1905246;75;21011;-55
2022/10/20 03:55:09;;;;;;;7.55;4.83;;;14.30;92.80;;;;;;1905299;75;21007;-56
2022/10/20 03:57:39;;;;;;;4.78;4.08;;;14.30;92.90;;;;;;1905402;75;21039;-55
2022/10/20 04:00:09;;;;;;;6.05;3.72;;;14.30;92.90;;;;;;1905289;75;21069;-55
2022/10/20 04:02:44;;;;;;;5.05;4.12;;;14.30;93.00;;;;;;1905327;75;21071;-56
2022/10/20 04:05:19;;;;;;;7.45;5.75;;;14.30;93.10;;;;;;1905430;74;20967;-55
2022/10/20 04:07:48;;;;;;;7.65;5.03;;;14.30;93.10;;;;;;1905441;74;21002;-55
2022/10/20 04:10:18;;;;;;;10.53;5.87;;;14.30;93.20;;;;;;1905226;75;21015;-55
2022/10/20 04:12:47;;;;;;;11.55;5.83;;;14.30;93.30;;;;;;1905149;75;21008;-56
2022/10/20 04:15:21;;;;;;;14.80;5.22;;;14.30;93.30;;;;;;1905246;75;21008;-55
2022/10/20 04:17:48;;;;;;;25.75;6.85;;;14.20;93.20;;;;;;1903715;75;21011;-55
2022/10/20 04:20:17;;;;;;;9.05;5.50;;;14.20;93.20;;;;;;1905310;75;21003;-54
2022/10/20 04:22:46;;;;;;;14.38;5.40;;;14.20;93.20;;;;;;1905375;75;21043;-54
2022/10/20 04:25:15;;;;;;;21.12;13.15;;;14.10;93.30;;;;;;1905251;75;21082;-56
2022/10/20 04:27:44;;;;;;;24.60;9.05;;;14.10;93.30;;;;;;1905254;75;21003;-54
2022/10/20 04:30:14;;;;;;;25.82;8.83;;;14.10;93.40;;;;;;1905247;75;21047;-55
2022/10/20 04:32:43;;;;;;;17.40;8.75;;;14.10;93.30;;;;;;1905338;75;21093;-56
2022/10/20 04:35:12;;;;;;;10.80;6.40;;;14.10;93.10;;;;;;1905263;75;21024;-55
2022/10/20 04:37:41;;;;;;;30.50;7.67;;;14.00;93.10;;;;;;1905293;75;21019;-55
2022/10/20 04:40:11;;;;;;;13.18;5.53;;;14.00;93.10;;;;;;1922557;74;21104;-55
2022/10/20 04:42:40;;;;;;;9.15;5.12;;;13.90;93.00;;;;;;1924669;74;21068;-54
2022/10/20 04:45:10;;;;;;;11.75;5.60;;;13.90;93.10;;;;;;1924771;74;21027;-56
2022/10/20 04:47:39;;;;;;;9.58;5.25;;;13.90;93.20;;;;;;1924666;74;21038;-55
2022/10/20 04:50:09;;;;;;;10.10;6.00;;;13.90;93.30;;;;;;1924718;74;21010;-54
2022/10/20 04:52:38;;;;;;;8.75;6.50;;;13.90;93.30;;;;;;1924613;74;21006;-56
2022/10/20 04:55:08;;;;;;;15.98;7.00;;;14.00;93.40;;;;;;1924645;74;21030;-55
2022/10/20 04:57:36;;;;;;;8.30;5.20;;;14.10;93.40;;;;;;1924696;74;21042;-55
2022/10/20 05:00:06;;;;;;;10.48;6.20;;;14.10;93.10;;;;;;1924739;74;20991;-54
2022/10/20 05:02:35;;;;;;;8.63;5.37;;;14.10;93.10;;;;;;1924633;74;21054;-56
2022/10/20 05:05:05;;;;;;;11.75;6.35;;;14.10;93.30;;;;;;1924597;74;21515;-54
2022/10/20 05:07:34;;;;;;;9.28;5.17;;;14.20;93.20;;;;;;1924601;74;21035;-56
2022/10/20 05:10:03;;;;;;;10.72;5.78;;;14.20;93.30;;;;;;1924610;74;21164;-55
2022/10/20 05:12:33;;;;;;;9.60;6.10;;;14.30;93.30;;;;;;1924613;74;21006;-56
2022/10/20 05:15:02;;;;;;;8.73;5.55;;;14.30;93.30;;;;;;1924646;74;21003;-55
2022/10/20 05:17:31;;;;;;;14.03;6.22;;;14.40;93.30;;;;;;1924534;74;21082;-54
2022/10/20 05:20:00;;;;;;;15.60;6.35;;;14.50;93.30;;;;;;1924702;74;21018;-55
2022/10/20 05:22:30;;;;;;;9.63;5.08;;;14.60;93.30;;;;;;1924586;74;21039;-56
2022/10/20 05:24:59;;;;;;;8.88;5.42;;;14.70;92.80;;;;;;1924714;74;21092;-53
2022/10/20 05:27:28;;;;;;;9.68;4.83;;;14.80;93.00;;;;;;1924794;74;21066;-55
2022/10/20 05:29:57;;;;;;;9.25;4.83;;;14.80;92.80;;;;;;1924505;74;20994;-55
2022/10/20 05:32:26;;;;;;;5.55;3.85;;;14.90;92.70;;;;;;1924583;74;21066;-56
2022/10/20 05:34:56;;;;;;;7.37;5.20;;;14.90;92.50;;;;;;1924582;74;21116;-55
2022/10/20 05:37:25;;;;;;;11.28;5.12;;;14.90;92.40;;;;;;1924543;74;21100;-55
2022/10/20 05:39:54;;;;;;;8.18;5.33;;;15.00;92.30;;;;;;1924562;74;21162;-55
2022/10/20 05:42:24;;;;;;;14.35;6.85;;;14.90;92.30;;;;;;1924532;74;21015;-55
2022/10/20 05:44:53;;;;;;;9.98;5.75;;;15.00;92.40;;;;;;1924562;74;21084;-55
2022/10/20 05:47:22;;;;;;;18.70;7.50;;;15.00;92.40;;;;;;1924677;74;21069;-55
2022/10/20 05:49:51;;;;;;;13.65;7.55;;;14.90;92.30;;;;;;1924551;74;21026;-55
2022/10/20 05:52:20;;;;;;;11.15;6.20;;;14.90;92.20;;;;;;1924771;74;21088;-53
2022/10/20 05:54:49;;;;;;;12.00;7.53;;;14.90;92.20;;;;;;1924597;74;21089;-55
2022/10/20 05:57:18;;;;;;;14.85;8.83;;;14.90;92.10;;;;;;1924571;74;21014;-55
2022/10/20 05:59:47;;;;;;;13.48;8.85;;;14.90;91.90;;;;;;1924595;74;21128;-55
2022/10/20 06:02:16;;;;;;;16.35;9.28;;;14.80;92.00;;;;;;1924579;74;21104;-55
2022/10/20 06:04:46;;;;;;;18.02;11.08;;;14.90;92.10;;;;;;1924684;74;21034;-54
2022/10/20 06:07:15;;;;;;;20.80;11.43;;;14.80;91.90;;;;;;1924656;74;21120;-55
2022/10/20 06:09:44;;;;;;;17.77;11.78;;;14.80;91.70;;;;;;1924479;74;21022;-54
2022/10/20 06:12:13;;;;;;;16.00;10.25;;;14.80;91.60;;;;;;1924628;74;21006;-54
2022/10/20 06:14:42;;;;;;;15.78;11.95;;;14.70;91.40;;;;;;1924749;74;21465;-56
2022/10/20 06:17:11;;;;;;;16.00;10.98;;;14.60;91.70;;;;;;1924641;74;21043;-55
2022/10/20 06:19:41;;;;;;;20.60;13.43;;;14.60;91.80;;;;;;1924466;74;21030;-56
2022/10/20 06:22:10;;;;;;;15.20;10.70;;;14.50;91.80;;;;;;1924492;74;21081;-55
2022/10/20 06:24:39;;;;;;;12.28;9.00;;;14.40;91.60;;;;;;1924856;74;21011;-55
2022/10/20 06:27:08;;;;;;;19.15;12.55;;;14.40;91.70;;;;;;1924534;74;21007;-54
2022/10/20 06:29:37;;;;;;;14.93;9.75;;;14.40;91.70;;;;;;1924561;74;21066;-52
2022/10/20 06:32:06;;;;;;;14.28;10.28;;;14.40;91.60;;;;;;1924722;74;20982;-55
2022/10/20 06:34:35;;;;;;;12.28;8.25;;;14.50;91.70;;;;;;1924593;74;21457;-54
2022/10/20 06:37:04;;;;;;;11.95;7.90;;;14.50;91.60;;;;;;1924524;74;21104;-56
2022/10/20 06:39:34;;;;;;;15.38;9.43;;;14.40;91.50;;;;;;1924493;74;21179;-55
2022/10/20 06:42:04;;;;;;;12.35;9.50;;;14.40;91.70;;;;;;1924595;74;21004;-54
2022/10/20 06:44:33;;;;;;;14.38;10.43;;;14.40;91.70;;;;;;1924528;74;21007;-53
2022/10/20 06:47:06;;;;;;;9.40;6.12;;;14.40;91.80;;;;;;1924565;74;21112;-52
2022/10/20 06:49:33;;;;;;;13.43;8.93;;;14.40;91.60;;;;;;1924303;74;21018;-55
2022/10/20 06:52:02;;;;;;;13.38;7.95;;;14.40;91.60;;;;;;1924528;74;21026;-55
2022/10/20 06:54:31;;;;;;;19.73;10.35;;;14.40;91.50;;;;;;1924570;74;21018;-54
2022/10/20 06:57:00;;;;;;;14.28;8.58;;;14.40;91.50;;;;;;1924717;74;21461;-55
2022/10/20 06:59:29;;;;;;;11.68;8.00;;;14.40;91.30;;;;;;1924595;74;21092;-55
2022/10/20 07:02:00;;;;;;;10.48;7.53;;;14.40;90.90;;;;;;1924582;74;21010;-54
2022/10/20 07:04:29;;;;;;;13.22;6.12;;;14.40;91.00;;;;;;1924692;74;21458;-55
2022/10/20 07:06:58;;;;;;;5.95;4.03;;;14.40;90.90;;;;;;1924645;74;21003;-53
2022/10/20 07:09:27;;;;;;;23.35;6.05;;;14.40;90.30;;;;;;1924728;74;21042;-54
2022/10/20 07:11:56;;;;;;;5.70;4.28;;;14.40;90.30;;;;;;1924571;74;21042;-55
2022/10/20 07:14:25;;;;;;;7.37;5.15;;;14.50;90.40;;;;;;1924549;74;21081;-56
2022/10/20 07:16:54;;;;;;;16.93;6.00;;;14.60;90.50;;;;;;1924646;74;21061;-55
2022/10/20 07:19:23;;;;;;;7.25;3.70;;;14.60;90.10;;;;;;1924640;74;21450;-55
2022/10/20 07:21:52;;;;;;;6.50;4.50;;;14.70;89.80;;;;;;1924551;74;21018;-55
2022/10/20 07:24:22;;;;;;;17.50;3.90;;;14.70;90.00;;;;;;1924577;74;21108;-55
2022/10/20 07:26:51;;;;;;;4.78;2.35;;;14.80;89.10;;;;;;1924497;74;21023;-55
2022/10/20 07:29:20;;;;;;;4.70;3.00;;;14.90;87.90;;;;;;1923093;74;21023;-55
2022/10/20 07:31:49;;;;;;;3.00;2.60;;;15.00;87.90;;;;;;1923860;74;21070;-54
2022/10/20 07:34:21;;;;;;;5.50;2.27;;;15.10;87.60;;;;;;1924036;74;21132;-57
2022/10/20 07:36:49;;;;;;;3.25;2.17;;;15.30;86.70;;;;;;1923767;73;21085;-55
2022/10/20 07:39:18;;;;;;;4.05;2.70;;;15.40;85.00;;;;;;1923824;74;21070;-50
2022/10/20 07:41:47;;;;;;;4.70;2.50;;;15.40;84.40;;;;;;1923922;74;21548;-53
2022/10/20 07:44:17;;;;;;;3.83;2.02;;;15.50;84.30;;;;;;1923694;74;21426;-51
2022/10/20 07:46:46;;;;;;;5.47;1.75;;;15.50;84.60;;;;;;1923934;74;21019;-55
2022/10/20 07:49:15;;;;;;;5.30;2.45;;;15.50;83.10;;;;;;1923952;74;21066;-55
2022/10/20 07:51:44;;;;;;;5.05;2.40;;;15.50;81.70;;;;;;1923663;74;21423;-58
2022/10/20 07:54:13;;;;;;;3.62;2.40;;;15.40;82.00;;;;;;1923867;74;21020;-57
2022/10/20 07:56:44;;;;;;;2.85;2.05;;;15.40;83.30;;;;;;1923843;74;21091;-57
2022/10/20 07:59:14;;;;;;;5.72;2.33;;;15.40;82.70;;;;;;1923782;74;21047;-55
2022/10/20 08:01:43;;;;;;;3.90;2.40;;;15.40;83.40;;;;;;1923755;74;21176;-57
2022/10/20 08:04:12;;;;;;;2.80;2.22;;;15.40;83.90;;;;;;1922824;74;21144;-54
2022/10/20 08:06:41;;;;;;;2.33;1.75;;;15.50;82.40;;;;;;1923810;74;21140;-53
2022/10/20 08:09:10;;;;;;;2.77;1.82;;;15.40;81.60;;;;;;1923952;74;21003;-54
2022/10/20 08:11:39;;;;;;;2.55;2.27;;;15.40;81.60;;;;;;1923923;74;21102;-54
2022/10/20 08:14:08;;;;;;;4.67;2.65;;;15.50;80.70;;;;;;1922994;74;21132;-55
2022/10/20 08:16:38;;;;;;;4.03;1.95;;;15.50;82.50;;;;;;1923980;74;21175;-52
2022/10/20 08:19:07;;;;;;;6.35;2.52;;;15.60;82.10;;;;;;1923779;74;21031;-54
2022/10/20 08:21:36;;;;;;;2.33;1.82;;;15.70;80.50;;;;;;1923662;74;21027;-56
2022/10/20 08:24:05;;;;;;;7.95;2.98;;;15.80;78.70;;;;;;1923678;74;20999;-57
2022/10/20 08:26:34;;;;;;;5.40;2.33;;;15.80;78.70;;;;;;1923852;74;21534;-57
2022/10/20 08:29:03;;;;;;;4.12;2.52;;;15.90;78.70;;;;;;1923597;74;21023;-57
2022/10/20 08:31:33;;;;;;;2.58;2.30;;;15.90;80.20;;;;;;1923739;74;21126;-57
2022/10/20 08:34:03;;;;;;;5.53;2.27;;;16.10;78.80;;;;;;1923865;74;21031;-57
2022/10/20 08:36:31;;;;;;;2.75;1.92;;;16.10;77.70;;;;;;1923723;74;21031;-57
2022/10/20 08:39:02;;;;;;;3.33;2.15;;;16.20;77.30;;;;;;1923752;74;21105;-57
2022/10/20 08:41:37;;;;;;;5.87;2.80;;;16.20;77.20;;;;;;1923887;74;21082;-56
2022/10/20 08:44:06;;;;;;;;;;;16.20;78.50;;;;;;1926761;74;21019;-53
2022/10/20 08:46:37;;;;;;;3.12;2.45;;;16.20;77.60;;;;;;1923762;74;20087;-54
2022/10/20 08:49:09;;;;;;;7.30;2.30;;;16.30;78.70;;;;;;1923584;74;21129;-55
2022/10/20 08:51:39;;;;;;;4.05;2.55;;;16.40;78.10;;;;;;1920125;74;21106;-53
2022/10/20 08:54:13;;;;;;;4.03;2.17;;;16.50;77.60;;;;;;1923888;74;21026;-49
2022/10/20 08:56:43;;;;;;;2.52;2.33;;;16.50;75.20;;;;;;1924177;74;21037;-51
2022/10/20 08:59:27;;;;;;;5.58;2.45;;;16.60;75.10;;;;;;1923977;74;21094;-49
2022/10/20 09:01:57;;;;;;;7.15;3.10;;;16.70;76.50;;;;;;1899450;74;21086;-55
2022/10/20 09:04:29;;;;;;;2.58;2.22;;;16.70;75.60;;;;;;1923842;74;21075;-57
2022/10/20 09:07:01;;;;;;;4.53;2.00;;;16.80;75.10;;;;;;1920301;74;21612;-57
2022/10/20 09:09:35;;;;;;;4.05;1.87;;;16.80;72.70;;;;;;1918257;74;21049;-57
2022/10/20 09:12:09;;;;;;;2.92;2.25;;;16.90;70.00;;;;;;1923508;73;21126;-56
2022/10/20 09:14:38;;;;;;;5.90;3.35;;;16.80;70.50;;;;;;1923661;74;21553;-57
2022/10/20 09:17:09;;;;;;;2.67;1.90;;;16.90;71.80;;;;;;1924099;74;21469;-57
2022/10/20 09:19:39;;;;;;;4.12;2.80;;;16.90;69.10;;;;;;1923511;74;21066;-58
2022/10/20 09:22:11;;;;;;;2.33;2.00;;;17.00;70.90;;;;;;1923974;74;21139;-51
2022/10/20 09:24:43;;;;;;;3.87;2.42;;;17.00;67.20;;;;;;1924090;74;21076;-55
2022/10/20 09:27:33;;;;;;;5.12;2.22;;;17.10;68.20;;;;;;1923935;74;21085;-58
2022/10/20 09:30:20;;;;;;;49.50;4.95;;;17.10;65.20;;;;;;1923940;74;21014;-57
2022/10/20 09:32:50;;;;;;;5.72;1.85;;;17.10;66.00;;;;;;1924025;74;21135;-57
2022/10/20 09:35:30;;;;;;;3.00;2.05;;;17.10;64.00;;;;;;1923918;74;21581;-56
2022/10/20 09:38:05;;;;;;;6.50;2.37;;;17.20;62.80;;;;;;1923827;74;21132;-56
2022/10/20 09:40:34;;;;;;;29.72;5.05;;;17.20;62.00;;;;;;1922953;74;21108;-55
2022/10/20 09:43:12;;;;;;;63.83;8.78;;;17.20;61.60;;;;;;1909808;74;21106;-57
2022/10/20 09:45:49;;;;;;;5.12;2.62;;;17.20;63.10;;;;;;1904498;75;21023;-53
2022/10/20 09:48:30;;;;;;;5.75;2.80;;;17.20;64.40;;;;;;1904106;74;21059;-53
2022/10/20 09:51:01;;;;;;;3.02;1.72;;;17.20;65.10;;;;;;1903803;74;21125;-56
2022/10/20 09:53:38;;;;;;;1.80;1.57;;;17.20;63.40;;;;;;1904589;75;21105;-55
2022/10/20 09:56:09;;;;;;;26.42;3.20;;;17.20;62.60;;;;;;1903658;74;21555;-55
2022/10/20 09:58:41;;;;;;;3.70;2.02;;;17.20;63.90;;;;;;1904698;75;21148;-50
2022/10/20 10:01:15;;;;;;;3.77;2.12;;;17.30;64.20;;;;;;1904731;75;21074;-53
2022/10/20 10:03:46;;;;;;;2.15;1.95;;;17.30;64.20;;;;;;1904621;74;21022;-51
2022/10/20 10:06:40;;;;;;;6.20;2.10;;;17.40;64.00;;;;;;1904597;74;21101;-56
2022/10/20 10:09:35;;;;;;;5.25;2.35;;;17.40;63.70;;;;;;1904680;75;21067;-57
2022/10/20 10:12:12;;;;;;;2.15;1.80;;;17.50;64.90;;;;;;1904483;75;21051;-55
2022/10/20 10:14:53;;;;;;;5.45;2.20;;;17.50;64.90;;;;;;1904610;75;21075;-56
2022/10/20 10:17:37;;;;;;;2.98;1.82;;;17.60;65.30;;;;;;1904104;74;21047;-55
2022/10/20 10:20:20;;;;;;;3.02;2.37;;;17.70;65.40;;;;;;1885521;74;21149;-55
2022/10/20 10:22:46;;;;;;;2.45;1.95;;;17.60;65.60;;;;;;1903956;74;21024;-53
2022/10/20 10:25:26;;;;;;;5.03;2.00;;;17.70;64.90;;;;;;1904481;75;21031;-54
2022/10/20 10:28:03;;;;;;;8.35;2.80;;;17.60;64.70;;;;;;1904460;75;21023;-57
2022/10/20 10:30:33;;;;;;;4.28;2.25;;;17.50;65.30;;;;;;1904347;74;21067;-57
2022/10/20 10:33:04;;;;;;;5.05;2.65;;;17.40;65.50;;;;;;1904466;74;21082;-57
2022/10/20 10:35:41;;;;;;;4.47;1.98;;;17.30;64.50;;;;;;1903425;74;21099;-57
2022/10/20 10:38:13;;;;;;;3.35;2.45;;;17.20;65.20;;;;;;1904770;75;21534;-54
2022/10/20 10:40:53;;;;;;;2.62;2.20;;;17.20;65.00;;;;;;1904458;75;21039;-58
2022/10/20 10:43:52;;;;;;;5.75;2.25;;;17.20;64.60;;;;;;1916998;74;21081;-58
2022/10/20 10:46:30;;;;;;;7.72;2.65;;;17.20;64.10;;;;;;1923911;74;21078;-57
2022/10/20 10:49:05;;;;;;;3.20;2.27;;;17.30;63.50;;;;;;1923343;74;21070;-56
2022/10/20 10:51:42;;;;;;;6.72;1.90;;;17.20;60.50;;;;;;1922265;74;21606;-57
2022/10/20 10:54:23;;;;;;;8.10;2.60;;;17.20;60.60;;;;;;1923145;74;21078;-57
2022/10/20 10:56:57;;;;;;;2.60;1.87;;;17.10;61.00;;;;;;1922135;74;21128;-54
2022/10/20 10:59:35;;;;;;;5.45;2.45;;;17.10;61.10;;;;;;1922416;74;21492;-55
2022/10/20 11:02:29;;;;;;;13.78;2.58;;;17.10;61.40;;;;;;1923090;74;21062;-52
2022/10/20 11:05:26;;;;;;;9.45;2.77;;;17.10;61.20;;;;;;1923970;74;21023;-53
2022/10/20 11:07:58;;;;;;;4.80;1.65;;;17.10;60.90;;;;;;1873860;74;21070;-54
2022/10/20 11:10:51;;;;;;;4.47;2.70;;;17.10;60.60;;;;;;1923700;74;21034;-53
2022/10/20 11:13:51;;;;;;;10.48;2.95;;;17.10;60.60;;;;;;1923836;74;21082;-54
2022/10/20 11:16:42;;;;;;;5.65;2.33;;;17.10;61.20;;;;;;1923823;74;21084;-54
2022/10/20 11:19:29;;;;;;;3.27;2.15;;;17.20;60.10;;;;;;1924248;74;21100;-52
2022/10/20 11:22:16;;;;;;;5.25;2.40;;;17.30;60.00;;;;;;1923958;74;21035;-54
2022/10/20 11:24:50;;;;;;;3.35;1.92;;;17.30;60.40;;;;;;1923797;74;21054;-56
2022/10/20 11:27:29;;;;;;;2.80;1.47;;;17.30;59.20;;;;;;1923274;74;21097;-55
2022/10/20 11:30:08;;;;;;;3.45;1.70;;;17.20;58.30;;;;;;1923105;74;21167;-55
2022/10/20 11:32:43;;;;;;;2.47;1.42;;;17.10;59.20;;;;;;1923495;74;21062;-56
2022/10/20 11:35:31;;;;;;;2.10;1.12;;;17.10;58.80;;;;;;1920326;74;21108;-56
2022/10/20 11:38:08;;;;;;;5.15;1.32;;;17.10;58.30;;;;;;1924516;74;21080;-55
2022/10/20 11:40:43;;;;;;;4.78;1.92;;;17.10;57.00;;;;;;1924588;74;21022;-56
2022/10/20 11:43:14;;;;;;;2.27;1.70;;;17.00;58.60;;;;;;1917391;74;21083;-56
2022/10/20 11:45:49;;;;;;;3.42;2.02;;;17.00;59.00;;;;;;1905097;75;21557;-56
2022/10/20 11:48:40;;;;;;;2.80;2.15;;;16.80;59.40;;;;;;1905390;75;21015;-56
2022/10/20 11:51:31;;;;;;;1.57;1.30;;;16.70;60.00;;;;;;1896936;74;21101;-54
2022/10/20 11:54:13;;;;;;;3.62;1.98;;;16.50;59.00;;;;;;1905291;75;21097;-55
2022/10/20 11:57:03;;;;;;;3.25;1.90;;;16.50;60.10;;;;;;1904236;74;21450;-55
2022/10/20 11:59:46;;;;;;;2.70;1.82;;;16.40;60.40;;;;;;1905157;75;21074;-55
2022/10/20 12:02:35;;;;;;;6.28;2.50;;;16.30;60.50;;;;;;1905268;75;21020;-56
2022/10/20 12:05:33;;;;;;;3.98;2.20;;;16.20;61.20;;;;;;1877709;75;21094;-55
2022/10/20 12:08:29;;;;;;;5.10;1.90;;;16.20;61.80;;;;;;1905045;75;21039;-54
2022/10/20 12:11:19;;;;;;;4.00;1.95;;;16.30;61.20;;;;;;1904972;74;21019;-53
2022/10/20 12:14:08;;;;;;;5.03;2.35;;;16.20;61.80;;;;;;1904759;74;21536;-54
2022/10/20 12:16:57;;;;;;;3.15;2.20;;;16.10;61.90;;;;;;1905233;75;21047;-56
2022/10/20 12:19:28;;;;;;;8.30;2.40;;;16.00;62.20;;;;;;1905363;75;21028;-54
2022/10/20 12:22:06;;;;;;;2.02;1.80;;;15.90;62.80;;;;;;1905288;75;21089;-55
2022/10/20 12:24:54;;;;;;;4.03;2.00;;;15.80;62.70;;;;;;1903787;74;21035;-49
2022/10/20 12:27:27;;;;;;;2.90;2.40;;;15.70;62.60;;;;;;1888492;75;21055;-56
2022/10/20 12:30:15;;;;;;;3.85;1.80;;;15.60;63.10;;;;;;1905322;74;21019;-56
2022/10/20 12:32:59;;;;;;;8.40;3.40;;;15.50;63.80;;;;;;1905264;75;21023;-56
2022/10/20 12:35:29;;;;;;;3.80;2.45;;;15.40;64.50;;;;;;1905115;75;21019;-54
2022/10/20 12:38:03;;;;;;;3.33;1.50;;;15.40;65.10;;;;;;1905284;74;21007;-55
2022/10/20 12:40:35;;;;;;;2.87;1.32;;;15.30;65.80;;;;;;1905278;75;20999;-54
2022/10/20 12:43:04;;;;;;;3.80;2.72;;;15.20;66.30;;;;;;1906718;74;21040;-55
2022/10/20 12:45:43;;;;;;;6.70;2.15;;;15.00;67.30;;;;;;1924576;74;20986;-54
2022/10/20 12:48:15;;;;;;;3.17;1.72;;;14.90;69.40;;;;;;1924649;74;21027;-55
2022/10/20 12:50:45;;;;;;;3.25;2.05;;;14.70;70.90;;;;;;1923499;74;21493;-56
2022/10/20 12:53:23;;;;;;;3.92;1.62;;;14.50;71.70;;;;;;1924656;74;21081;-54
2022/10/20 12:56:01;;;;;;;2.75;1.77;;;14.30;72.60;;;;;;1924475;74;21088;-54
2022/10/20 12:58:33;;;;;;;3.47;1.60;;;14.20;73.70;;;;;;1924596;74;21067;-55
2022/10/20 13:01:10;;;;;;;2.55;1.30;;;14.00;74.50;;;;;;1924685;74;21066;-54
2022/10/20 13:03:45;;;;;;;3.83;1.50;;;13.80;75.00;;;;;;1924753;74;21082;-53
2022/10/20 13:06:26;;;;;;;2.40;1.30;;;13.70;75.80;;;;;;1924735;74;21096;-55
2022/10/20 13:09:08;;;;;;;1.70;1.20;;;13.50;76.70;;;;;;1917126;74;21047;-55
2022/10/20 13:11:40;;;;;;;2.30;1.20;;;13.40;77.20;;;;;;1924618;74;21089;-55
2022/10/20 13:14:20;;;;;;;4.00;1.20;;;13.30;77.70;;;;;;1924578;74;21469;-55